Pinetown, North Carolina
Current Conditions -  °F | °C
As of 12:15 AM on Saturday 20 Dec 2014 (Local Time) from KOCW Reporting Station
Clear Clear  
Wind Chill: 34°   Ceiling: Unl
Heat Index: 34°   Visibility: 10mi
Dew Point: 30°   Wind: 3mph
Humidity: 85%   Direction: 90°E
Pressure: 30.22"   Gusts: NA
Location:  35.61°N, 76.86°W
Report Text: KOCW 200515Z AUTO 09003KT 10SM CLR 01/M01 A3022 RMK AO2 T00131010
Loading
Personal Weather Stations






























Interactive Weather Map New forecast layout! Learn more

10-Day Weather Forecast

Advertisements
Track Severe Weather on mobile